createdAt,value
2018-06-30T00:00:07.996Z,5.60
2018-06-30T00:02:36.857Z,6.10
2018-06-30T00:05:05.172Z,6.17
2018-06-30T00:07:33.511Z,5.80
2018-06-30T00:10:01.660Z,5.60
2018-06-30T00:12:30.202Z,5.90
2018-06-30T00:14:58.529Z,6.17
2018-06-30T00:17:26.918Z,5.50
2018-06-30T00:19:55.437Z,5.90
2018-06-30T00:22:23.774Z,6.30
2018-06-30T00:24:52.046Z,6.90
2018-06-30T00:27:25.809Z,6.27
2018-06-30T00:29:54.129Z,6.80
2018-06-30T00:32:22.460Z,5.83
2018-06-30T00:34:50.823Z,6.23
2018-06-30T00:37:18.853Z,6.50
2018-06-30T00:39:47.230Z,6.60
2018-06-30T00:42:15.514Z,5.53
2018-06-30T00:44:43.697Z,6.33
2018-06-30T00:47:11.958Z,6.37
2018-06-30T00:49:40.373Z,6.27
2018-06-30T00:52:08.922Z,6.47
2018-06-30T00:54:37.350Z,5.93
2018-06-30T00:57:05.916Z,5.93
2018-06-30T00:59:34.354Z,6.07
2018-06-30T01:02:02.833Z,6.67
2018-06-30T01:04:31.242Z,6.80
2018-06-30T01:06:59.473Z,6.73
2018-06-30T01:09:27.870Z,5.90
2018-06-30T01:11:56.380Z,6.10
2018-06-30T01:14:24.731Z,6.67
2018-06-30T01:16:53.033Z,7.60
2018-06-30T01:19:21.412Z,6.70
2018-06-30T01:21:49.755Z,6.77
2018-06-30T01:24:18.019Z,6.37
2018-06-30T01:26:46.306Z,7.17
2018-06-30T01:29:14.454Z,6.67
2018-06-30T01:31:42.797Z,6.30
2018-06-30T01:34:11.106Z,7.13
2018-06-30T01:36:39.505Z,7.30
2018-06-30T01:39:09.157Z,6.83
2018-06-30T01:41:37.599Z,7.00
2018-06-30T01:44:05.984Z,6.50
2018-06-30T01:46:33.954Z,7.00
2018-06-30T01:49:02.322Z,6.67
2018-06-30T01:51:30.589Z,6.93
2018-06-30T01:53:59.006Z,7.67
2018-06-30T01:56:27.237Z,6.60
2018-06-30T01:58:55.521Z,7.03
2018-06-30T02:01:23.692Z,6.60
2018-06-30T02:03:52.074Z,6.43
2018-06-30T02:06:20.406Z,6.40
2018-06-30T02:08:48.830Z,6.60
2018-06-30T02:11:17.093Z,7.13
2018-06-30T02:13:45.414Z,6.90
2018-06-30T02:16:13.744Z,7.20
2018-06-30T02:18:42.039Z,7.27
2018-06-30T02:21:10.313Z,7.20
2018-06-30T02:23:38.473Z,8.13
2018-06-30T02:26:06.910Z,7.60
2018-06-30T02:28:35.125Z,7.03
2018-06-30T02:31:03.409Z,7.53
2018-06-30T02:33:31.530Z,7.27
2018-06-30T02:35:59.872Z,6.70
2018-06-30T02:38:28.030Z,7.03
2018-06-30T02:40:55.941Z,7.00
2018-06-30T02:43:24.279Z,7.03
2018-06-30T02:45:52.570Z,7.17
2018-06-30T02:48:20.845Z,7.70
2018-06-30T02:50:49.107Z,7.50
2018-06-30T02:53:17.269Z,8.27
2018-06-30T02:55:45.649Z,8.30
2018-06-30T02:58:13.881Z,7.93
2018-06-30T03:00:42.359Z,9.60
2018-06-30T03:03:10.679Z,10.40
2018-06-30T03:05:38.952Z,16.67
2018-06-30T03:08:07.469Z,25.10
2018-06-30T03:10:35.705Z,25.63
2018-06-30T03:13:04.189Z,25.13
2018-06-30T03:15:32.501Z,23.27
2018-06-30T03:18:00.837Z,22.50
2018-06-30T03:20:29.117Z,22.03
2018-06-30T03:22:57.546Z,18.33
2018-06-30T03:25:25.978Z,17.13
2018-06-30T03:27:54.153Z,14.47
2018-06-30T03:30:22.434Z,11.57
2018-06-30T03:32:50.802Z,9.73
2018-06-30T03:35:18.881Z,10.13
2018-06-30T03:37:47.353Z,9.07
2018-06-30T03:40:15.506Z,8.13
2018-06-30T03:42:43.682Z,8.17
2018-06-30T03:45:12.214Z,7.67
2018-06-30T03:47:40.566Z,7.80
2018-06-30T03:50:08.935Z,7.40
2018-06-30T03:52:37.245Z,7.33
2018-06-30T03:55:05.890Z,7.47
2018-06-30T03:57:34.128Z,7.50
2018-06-30T04:00:02.517Z,7.23
2018-06-30T04:02:30.833Z,7.97
2018-06-30T04:04:59.103Z,8.17
2018-06-30T04:07:27.511Z,7.43
2018-06-30T04:09:55.845Z,7.43
2018-06-30T04:12:24.138Z,8.30
2018-06-30T04:14:52.422Z,8.33
2018-06-30T04:17:20.781Z,7.73
2018-06-30T04:19:49.066Z,7.33
2018-06-30T04:22:18.187Z,7.13
2018-06-30T04:24:46.625Z,6.93
2018-06-30T04:27:15.013Z,6.60
2018-06-30T04:29:43.114Z,7.47
2018-06-30T04:32:11.557Z,7.30
2018-06-30T04:34:39.833Z,7.10
2018-06-30T04:37:07.821Z,6.70
2018-06-30T04:39:36.177Z,6.93
2018-06-30T04:42:04.811Z,6.23
2018-06-30T04:44:33.140Z,6.87
2018-06-30T04:47:01.425Z,6.37
2018-06-30T04:49:29.797Z,6.57
2018-06-30T04:51:58.178Z,6.37
2018-06-30T04:54:26.444Z,6.90
2018-06-30T04:56:54.782Z,6.97
2018-06-30T04:59:23.202Z,7.10
2018-06-30T05:01:51.634Z,7.37
2018-06-30T05:04:20.431Z,7.20
2018-06-30T05:06:48.754Z,7.03
2018-06-30T05:09:17.030Z,7.30
2018-06-30T05:11:45.297Z,6.77
2018-06-30T05:14:13.473Z,7.80
2018-06-30T05:16:41.845Z,7.70
2018-06-30T05:19:10.028Z,7.83
2018-06-30T05:21:38.493Z,7.77
2018-06-30T05:24:06.681Z,6.77
2018-06-30T05:26:34.954Z,7.90
2018-06-30T05:29:03.221Z,6.40
2018-06-30T05:31:31.610Z,7.33
2018-06-30T05:33:59.879Z,7.27
2018-06-30T05:36:28.254Z,6.63
2018-06-30T05:38:56.741Z,7.40
2018-06-30T05:41:24.958Z,6.23
2018-06-30T05:43:53.385Z,5.90
2018-06-30T05:46:21.777Z,6.50
2018-06-30T05:48:50.052Z,6.33
2018-06-30T05:51:18.209Z,6.83
2018-06-30T05:53:46.385Z,6.47
2018-06-30T05:56:14.661Z,6.07
2018-06-30T06:01:17.194Z,5.80
2018-06-30T06:03:45.649Z,5.60
2018-06-30T06:06:14.029Z,5.83
2018-06-30T06:08:42.396Z,5.97
2018-06-30T06:11:10.988Z,8.90
2018-06-30T06:13:39.356Z,6.17
2018-06-30T06:16:07.636Z,7.60
2018-06-30T06:18:35.908Z,6.90
2018-06-30T06:21:04.352Z,7.20
2018-06-30T06:23:32.790Z,6.90
2018-06-30T06:26:01.278Z,7.50
2018-06-30T06:28:29.656Z,7.43
2018-06-30T06:30:57.700Z,7.70
2018-06-30T06:33:25.968Z,7.73
2018-06-30T06:35:54.356Z,5.93
2018-06-30T06:38:22.940Z,6.13
2018-06-30T06:40:51.316Z,6.37
2018-06-30T06:43:19.713Z,6.30
2018-06-30T06:45:48.172Z,6.70
2018-06-30T06:48:16.548Z,6.13
2018-06-30T06:50:44.432Z,6.07
2018-06-30T06:53:12.381Z,6.87
2018-06-30T06:55:40.337Z,6.00
2018-06-30T06:58:08.625Z,5.87
2018-06-30T07:00:37.007Z,5.53
2018-06-30T07:03:05.428Z,6.07
2018-06-30T07:05:33.861Z,6.03
2018-06-30T07:08:01.781Z,5.03
2018-06-30T07:10:29.714Z,5.40
2018-06-30T07:12:57.647Z,4.90
2018-06-30T07:15:25.604Z,5.23
2018-06-30T07:17:53.565Z,5.70
2018-06-30T07:20:21.578Z,5.20
2018-06-30T07:22:49.504Z,5.20
2018-06-30T07:25:17.912Z,5.80
2018-06-30T07:27:46.188Z,6.17
2018-06-30T07:30:14.168Z,5.40
2018-06-30T07:32:42.144Z,5.87
2018-06-30T07:35:10.179Z,5.27
2018-06-30T07:37:38.201Z,5.97
2018-06-30T07:40:06.131Z,5.80
2018-06-30T07:42:34.292Z,7.87
2018-06-30T07:45:02.217Z,8.23
2018-06-30T07:47:30.188Z,6.80
2018-06-30T07:49:58.184Z,7.13
2018-06-30T07:52:26.093Z,7.80
2018-06-30T07:54:54.080Z,8.53
2018-06-30T07:57:22.021Z,10.27
2018-06-30T07:59:49.956Z,12.53
2018-06-30T08:02:17.948Z,9.80
2018-06-30T08:04:45.864Z,13.57
2018-06-30T08:07:13.833Z,18.43
2018-06-30T08:09:41.800Z,11.90
2018-06-30T08:12:09.726Z,9.27
2018-06-30T08:14:37.656Z,8.83
2018-06-30T08:17:05.614Z,8.50
2018-06-30T08:19:33.549Z,8.43
2018-06-30T08:22:01.536Z,25.03
2018-06-30T08:24:29.516Z,15.00
2018-06-30T08:26:57.553Z,12.43
2018-06-30T08:29:25.532Z,18.40
2018-06-30T08:31:53.479Z,27.50
2018-06-30T08:34:21.454Z,12.70
2018-06-30T08:36:49.356Z,11.20
2018-06-30T08:39:17.776Z,12.47
2018-06-30T08:41:46.050Z,8.93
2018-06-30T08:44:14.535Z,6.13
2018-06-30T08:46:42.802Z,8.83
2018-06-30T08:49:11.193Z,10.33
2018-06-30T08:51:39.580Z,7.67
2018-06-30T08:54:08.037Z,8.68
2018-06-30T08:56:36.526Z,7.35
2018-06-30T08:59:05.107Z,9.53
2018-06-30T09:01:33.688Z,7.57
2018-06-30T09:04:01.852Z,7.60
2018-06-30T09:06:30.144Z,7.53
2018-06-30T09:08:58.517Z,7.03
2018-06-30T09:11:26.896Z,7.57
2018-06-30T09:13:55.372Z,7.50
2018-06-30T09:16:23.644Z,7.43
2018-06-30T09:18:51.921Z,7.07
2018-06-30T09:21:20.180Z,7.13
2018-06-30T09:23:48.472Z,8.23
2018-06-30T09:26:16.749Z,7.67
2018-06-30T09:28:45.121Z,7.77
2018-06-30T09:31:13.506Z,7.07
2018-06-30T09:33:41.880Z,6.23
2018-06-30T09:36:10.158Z,6.50
2018-06-30T09:38:38.640Z,6.33
2018-06-30T09:41:06.808Z,6.40
2018-06-30T09:43:35.087Z,7.33
2018-06-30T09:46:03.677Z,8.47
2018-06-30T09:48:32.045Z,7.57
2018-06-30T09:51:00.456Z,7.17
2018-06-30T09:53:28.791Z,8.10
2018-06-30T09:55:56.976Z,7.97
2018-06-30T09:58:25.343Z,8.33
2018-06-30T10:00:59.292Z,10.23
2018-06-30T10:03:27.612Z,8.57
2018-06-30T10:05:55.907Z,8.43
2018-06-30T10:08:24.184Z,8.43
2018-06-30T10:10:52.459Z,7.93
2018-06-30T10:13:20.842Z,8.60
2018-06-30T10:15:49.343Z,8.70
2018-06-30T10:18:17.687Z,7.93
2018-06-30T10:20:45.969Z,8.37
2018-06-30T10:23:14.243Z,8.47
2018-06-30T10:25:42.623Z,8.57
2018-06-30T10:28:11.469Z,8.03
2018-06-30T10:30:40.552Z,8.40
2018-06-30T10:33:09.553Z,7.40
2018-06-30T10:35:38.232Z,7.30
2018-06-30T10:38:06.764Z,6.37
2018-06-30T10:40:35.294Z,6.93
2018-06-30T10:43:03.628Z,9.87
2018-06-30T10:45:31.848Z,8.00
2018-06-30T10:48:00.277Z,7.97
2018-06-30T10:50:28.448Z,8.20
2018-06-30T10:52:56.827Z,7.97
2018-06-30T10:55:25.125Z,7.83
2018-06-30T10:57:53.171Z,8.03
2018-06-30T11:00:21.575Z,7.80
2018-06-30T11:02:50.031Z,6.90
2018-06-30T11:05:18.421Z,6.47
2018-06-30T11:07:46.764Z,6.00
2018-06-30T11:10:15.062Z,6.00
2018-06-30T11:12:43.451Z,5.13
2018-06-30T11:15:11.919Z,5.70
2018-06-30T11:17:40.265Z,6.17
2018-06-30T11:20:08.381Z,6.17
2018-06-30T11:22:36.848Z,6.63
2018-06-30T11:25:06.035Z,6.07
2018-06-30T11:27:34.135Z,6.17
2018-06-30T11:30:02.496Z,6.17
2018-06-30T11:32:30.982Z,6.47
2018-06-30T11:34:59.344Z,5.83
2018-06-30T11:37:27.824Z,6.13
2018-06-30T11:39:56.103Z,6.33
2018-06-30T11:42:24.379Z,6.60
2018-06-30T11:44:52.751Z,6.73
2018-06-30T11:47:21.031Z,6.60
2018-06-30T11:49:49.507Z,7.30
2018-06-30T11:52:17.800Z,7.63
2018-06-30T11:54:46.267Z,7.20
2018-06-30T11:57:14.436Z,7.20
2018-06-30T11:59:42.820Z,6.77
2018-06-30T12:02:11.227Z,7.20
2018-06-30T12:04:39.574Z,7.20
2018-06-30T12:07:08.008Z,6.50
2018-06-30T12:09:36.334Z,6.00
2018-06-30T12:12:04.812Z,6.30
2018-06-30T12:14:32.798Z,6.20
2018-06-30T12:17:01.153Z,6.70
2018-06-30T12:19:29.527Z,6.30
2018-06-30T12:21:57.700Z,6.90
2018-06-30T12:24:26.027Z,6.80
2018-06-30T12:26:54.578Z,7.00
2018-06-30T12:29:22.708Z,7.00
2018-06-30T12:31:51.116Z,7.50
2018-06-30T12:34:19.283Z,7.50
2018-06-30T12:36:47.481Z,8.23
2018-06-30T12:39:15.832Z,7.37
2018-06-30T12:41:44.219Z,7.80
2018-06-30T12:44:12.395Z,8.57
2018-06-30T12:46:40.663Z,7.93
2018-06-30T12:49:08.936Z,8.20
2018-06-30T12:51:37.216Z,7.47
2018-06-30T12:54:05.696Z,8.50
2018-06-30T12:56:34.179Z,8.30
2018-06-30T12:59:02.556Z,7.67
2018-06-30T13:01:30.932Z,8.47
2018-06-30T13:03:59.211Z,8.17
2018-06-30T13:06:27.484Z,7.93
2018-06-30T13:08:55.860Z,8.13
2018-06-30T13:11:24.445Z,7.70
2018-06-30T13:13:52.941Z,8.00
2018-06-30T13:16:21.404Z,8.60
2018-06-30T13:18:49.987Z,8.50
2018-06-30T13:21:18.521Z,8.03
2018-06-30T13:23:46.844Z,7.20
2018-06-30T13:26:15.113Z,7.60
2018-06-30T13:28:43.309Z,7.47
2018-06-30T13:31:11.884Z,8.00
2018-06-30T13:33:40.355Z,7.43
2018-06-30T13:36:08.836Z,7.03
2018-06-30T13:38:37.307Z,7.97
2018-06-30T13:41:05.796Z,7.40
2018-06-30T13:43:34.338Z,8.40
2018-06-30T13:46:02.331Z,8.50
2018-06-30T13:48:30.620Z,8.00
2018-06-30T13:50:59.099Z,8.43
2018-06-30T13:53:27.125Z,7.53
2018-06-30T13:55:55.555Z,8.00
2018-06-30T13:58:23.934Z,7.60
2018-06-30T14:00:52.429Z,13.67
2018-06-30T14:03:20.747Z,17.03
2018-06-30T14:05:49.268Z,10.00
2018-06-30T14:08:17.730Z,8.40
2018-06-30T14:10:46.041Z,9.27
2018-06-30T14:13:14.498Z,7.53
2018-06-30T14:15:42.862Z,8.97
2018-06-30T14:18:11.246Z,9.00
2018-06-30T14:20:39.501Z,9.13
2018-06-30T14:23:08.012Z,9.43
2018-06-30T14:25:36.286Z,7.40
2018-06-30T14:28:04.763Z,8.03
2018-06-30T14:30:33.140Z,7.30
2018-06-30T14:33:01.515Z,8.07
2018-06-30T14:35:29.886Z,7.30
2018-06-30T14:37:58.267Z,7.47
2018-06-30T14:40:26.345Z,8.20
2018-06-30T14:42:54.720Z,8.40
2018-06-30T14:45:23.085Z,7.53
2018-06-30T14:47:51.466Z,7.47
2018-06-30T14:50:19.907Z,8.70
2018-06-30T14:52:48.235Z,9.20
2018-06-30T14:55:16.481Z,8.13
2018-06-30T14:57:44.882Z,9.47
2018-06-30T15:00:12.907Z,9.60
2018-06-30T15:02:41.226Z,7.70
2018-06-30T15:05:10.751Z,7.83
2018-06-30T15:07:39.318Z,8.63
2018-06-30T15:10:08.348Z,7.90
2018-06-30T15:12:36.579Z,8.63
2018-06-30T15:15:05.255Z,8.23
2018-06-30T15:17:33.645Z,8.30
2018-06-30T15:20:02.015Z,7.63
2018-06-30T15:22:30.511Z,8.83
2018-06-30T15:24:58.881Z,8.27
2018-06-30T15:27:27.145Z,7.87
2018-06-30T15:29:55.439Z,8.67
2018-06-30T15:32:23.901Z,11.90
2018-06-30T15:34:52.196Z,10.07
2018-06-30T15:37:20.557Z,9.77
2018-06-30T15:39:48.942Z,8.43
2018-06-30T15:42:17.016Z,9.23
2018-06-30T15:44:45.185Z,9.10
2018-06-30T15:47:13.671Z,9.80
2018-06-30T15:49:41.941Z,10.20
2018-06-30T15:52:10.324Z,9.00
2018-06-30T15:54:38.593Z,9.63
2018-06-30T15:57:06.569Z,8.70
2018-06-30T15:59:34.829Z,9.20
2018-06-30T16:02:03.726Z,8.23
2018-06-30T16:04:31.729Z,9.00
2018-06-30T16:07:00.173Z,9.00
2018-06-30T16:09:28.442Z,9.17
2018-06-30T16:11:56.736Z,8.20
2018-06-30T16:14:25.097Z,9.10
2018-06-30T16:16:53.377Z,8.27
2018-06-30T16:19:21.654Z,8.73
2018-06-30T16:21:50.007Z,8.93
2018-06-30T16:24:18.409Z,9.43
2018-06-30T16:26:46.390Z,9.53
2018-06-30T16:29:14.554Z,8.27
2018-06-30T16:31:43.106Z,8.47
2018-06-30T16:34:11.318Z,10.30
2018-06-30T16:36:39.777Z,9.60
2018-06-30T16:39:09.149Z,10.73
2018-06-30T16:41:37.272Z,9.67
2018-06-30T16:44:05.793Z,9.23
2018-06-30T16:46:34.492Z,8.87
2018-06-30T16:49:02.966Z,10.03
2018-06-30T16:51:31.543Z,9.80
2018-06-30T16:53:59.853Z,10.73
2018-06-30T16:56:28.030Z,9.70
2018-06-30T16:58:56.424Z,9.30
2018-06-30T17:01:24.690Z,8.97
2018-06-30T17:03:52.853Z,10.20
2018-06-30T17:06:21.486Z,9.50
2018-06-30T17:08:49.814Z,10.30
2018-06-30T17:11:18.201Z,9.90
2018-06-30T17:13:46.580Z,9.43
2018-06-30T17:16:14.960Z,8.63
2018-06-30T17:18:43.240Z,8.40
2018-06-30T17:21:11.619Z,8.27
2018-06-30T17:23:39.982Z,6.80
2018-06-30T17:26:08.277Z,7.07
2018-06-30T17:28:36.650Z,7.50
2018-06-30T17:31:05.028Z,7.70
2018-06-30T17:33:33.290Z,8.47
2018-06-30T17:36:01.665Z,6.87
2018-06-30T17:38:30.051Z,8.30
2018-06-30T17:40:58.329Z,7.60
2018-06-30T17:43:26.601Z,7.90
2018-06-30T17:45:54.883Z,7.77
2018-06-30T17:48:23.246Z,6.77
2018-06-30T17:50:51.744Z,6.67
2018-06-30T17:53:20.156Z,6.57
2018-06-30T17:55:48.481Z,6.40
2018-06-30T17:58:16.392Z,7.23
2018-06-30T18:00:44.621Z,6.73
2018-06-30T18:03:13.010Z,6.20
2018-06-30T18:05:41.170Z,6.27
2018-06-30T18:08:09.359Z,6.27
2018-06-30T18:10:37.733Z,6.80
2018-06-30T18:13:06.110Z,7.37
2018-06-30T18:15:34.485Z,6.50
2018-06-30T18:18:02.866Z,5.57
2018-06-30T18:20:31.145Z,6.17
2018-06-30T18:22:59.414Z,5.80
2018-06-30T18:25:27.676Z,6.10
2018-06-30T18:27:56.069Z,6.03
2018-06-30T18:30:24.234Z,6.00
2018-06-30T18:32:52.622Z,6.20
2018-06-30T18:35:20.888Z,6.43
2018-06-30T18:37:49.280Z,5.93
2018-06-30T18:40:17.745Z,6.30
2018-06-30T18:42:45.935Z,5.20
2018-06-30T18:45:14.294Z,5.67
2018-06-30T18:47:42.673Z,6.10
2018-06-30T18:50:11.050Z,5.97
2018-06-30T18:52:39.402Z,6.13
2018-06-30T18:55:07.706Z,6.83
2018-06-30T18:57:37.114Z,6.87
2018-06-30T19:00:06.588Z,6.90
2018-06-30T19:02:34.904Z,7.13
2018-06-30T19:05:03.384Z,7.63
2018-06-30T19:07:31.750Z,7.07
2018-06-30T19:10:00.092Z,7.27
2018-06-30T19:12:28.406Z,6.73
2018-06-30T19:14:56.877Z,7.50
2018-06-30T19:17:25.262Z,7.10
2018-06-30T19:19:53.529Z,7.90
2018-06-30T19:22:21.710Z,7.63
2018-06-30T19:24:50.086Z,8.53
2018-06-30T19:27:18.366Z,8.07
2018-06-30T19:29:46.421Z,7.20
2018-06-30T19:32:14.712Z,7.77
2018-06-30T19:34:42.985Z,7.37
2018-06-30T19:37:11.361Z,7.90
2018-06-30T19:39:39.742Z,7.13
2018-06-30T19:42:08.133Z,7.83
2018-06-30T19:44:36.289Z,7.30
2018-06-30T19:47:04.769Z,7.40
2018-06-30T19:49:33.156Z,7.13
2018-06-30T19:52:01.528Z,6.77
2018-06-30T19:54:29.803Z,7.60
2018-06-30T19:56:58.183Z,7.93
2018-06-30T19:59:26.557Z,7.97
2018-06-30T20:01:54.868Z,8.60
2018-06-30T20:04:23.413Z,8.20
2018-06-30T20:06:51.585Z,7.97
2018-06-30T20:09:19.762Z,8.50
2018-06-30T20:11:48.030Z,8.40
2018-06-30T20:14:16.313Z,9.10
2018-06-30T20:16:44.485Z,8.07
2018-06-30T20:19:12.657Z,8.67
2018-06-30T20:21:41.034Z,7.80
2018-06-30T20:24:09.182Z,7.97
2018-06-30T20:26:37.600Z,7.07
2018-06-30T20:29:06.024Z,7.47
2018-06-30T20:31:34.445Z,7.10
2018-06-30T20:34:02.714Z,6.97
2018-06-30T20:36:30.993Z,7.07
2018-06-30T20:38:59.289Z,7.60
2018-06-30T20:41:27.757Z,7.93
2018-06-30T20:43:56.229Z,7.73
2018-06-30T20:46:24.279Z,7.50
2018-06-30T20:48:52.677Z,8.40
2018-06-30T20:51:21.068Z,7.37
2018-06-30T20:53:49.325Z,8.13
2018-06-30T20:56:17.821Z,7.40
2018-06-30T20:58:46.200Z,7.67
2018-06-30T21:01:14.221Z,7.83
2018-06-30T21:03:42.555Z,8.27
2018-06-30T21:06:11.025Z,8.17
2018-06-30T21:08:39.182Z,7.73
2018-06-30T21:11:07.472Z,8.20
2018-06-30T21:13:36.045Z,8.07
2018-06-30T21:16:04.336Z,7.97
2018-06-30T21:18:32.700Z,8.10
2018-06-30T21:21:00.980Z,8.03
2018-06-30T21:23:29.260Z,7.77
2018-06-30T21:25:57.719Z,8.30
2018-06-30T21:28:26.113Z,8.40
2018-06-30T21:30:54.431Z,8.13
2018-06-30T21:33:22.975Z,7.83
2018-06-30T21:35:51.343Z,8.40
2018-06-30T21:38:19.600Z,7.90
2018-06-30T21:40:47.904Z,8.73
2018-06-30T21:43:16.269Z,8.33
2018-06-30T21:45:44.549Z,8.43
2018-06-30T21:48:13.036Z,9.37
2018-06-30T21:50:41.506Z,9.03
2018-06-30T21:53:09.792Z,8.80
2018-06-30T21:55:38.102Z,9.53
2018-06-30T21:58:06.552Z,8.93
2018-06-30T22:00:47.684Z,9.77
2018-06-30T22:03:17.360Z,8.80
2018-06-30T22:05:45.598Z,9.00
2018-06-30T22:08:13.682Z,9.67
2018-06-30T22:10:42.204Z,9.47
2018-06-30T22:13:10.597Z,8.73
2018-06-30T22:15:38.904Z,8.90
2018-06-30T22:18:07.274Z,9.47
2018-06-30T22:20:35.914Z,9.80
2018-06-30T22:23:04.416Z,9.27
2018-06-30T22:25:33.233Z,10.47
2018-06-30T22:28:01.969Z,10.87
2018-06-30T22:30:30.549Z,10.33
2018-06-30T22:32:58.981Z,10.73
2018-06-30T22:35:27.361Z,11.03
2018-06-30T22:37:56.393Z,11.03
2018-06-30T22:40:24.820Z,11.33
2018-06-30T22:42:53.409Z,12.30
2018-06-30T22:45:21.307Z,11.83
2018-06-30T22:47:49.545Z,12.03
2018-06-30T22:50:18.493Z,13.23
2018-06-30T22:52:46.900Z,11.33
2018-06-30T22:55:15.406Z,12.13
2018-06-30T22:57:43.785Z,12.00
2018-06-30T23:00:14.203Z,13.27
2018-06-30T23:02:42.465Z,10.50
2018-06-30T23:05:10.854Z,11.13
2018-06-30T23:07:39.230Z,11.67
2018-06-30T23:10:07.721Z,10.80
2018-06-30T23:12:35.973Z,11.67
2018-06-30T23:15:04.470Z,11.30
2018-06-30T23:17:32.954Z,10.77
2018-06-30T23:20:01.334Z,11.37
2018-06-30T23:23:05.285Z,11.37
2018-06-30T23:25:34.151Z,11.20
2018-06-30T23:28:02.857Z,10.77
2018-06-30T23:30:31.555Z,10.37
2018-06-30T23:32:59.878Z,11.37
2018-06-30T23:35:29.154Z,10.27
2018-06-30T23:37:58.482Z,10.40
2018-06-30T23:40:27.070Z,10.70
2018-06-30T23:42:55.467Z,10.70
2018-06-30T23:45:24.129Z,10.57
2018-06-30T23:47:53.264Z,10.17
2018-06-30T23:50:21.808Z,10.43
2018-06-30T23:52:50.274Z,10.80
2018-06-30T23:55:18.649Z,10.73
2018-06-30T23:57:46.572Z,11.07
